sensor_id;sensor_type;location;lat;lon;timestamp;P1;durP1;ratioP1;P2;durP2;ratioP2
4961;SDS011;2496;52.468;13.342;2023-03-01T00:02:12;25.53;;;12.70;;
4961;SDS011;2496;52.468;13.342;2023-03-01T00:04:39;25.67;;;12.63;;
4961;SDS011;2496;52.468;13.342;2023-03-01T00:07:06;24.57;;;13.27;;
4961;SDS011;2496;52.468;13.342;2023-03-01T00:09:35;24.70;;;11.57;;
4961;SDS011;2496;52.468;13.342;2023-03-01T00:12:03;24.20;;;13.63;;
4961;SDS011;2496;52.468;13.342;2023-03-01T00:14:31;23.50;;;11.80;;
4961;SDS011;2496;52.468;13.342;2023-03-01T00:16:58;29.47;;;12.47;;
4961;SDS011;2496;52.468;13.342;2023-03-01T00:19:25;20.87;;;11.60;;
4961;SDS011;2496;52.468;13.342;2023-03-01T00:21:52;26.77;;;12.97;;
4961;SDS011;2496;52.468;13.342;2023-03-01T00:24:19;25.23;;;13.60;;
4961;SDS011;2496;52.468;13.342;2023-03-01T00:26:47;24.00;;;12.13;;
4961;SDS011;2496;52.468;13.342;2023-03-01T00:29:14;25.80;;;12.30;;
4961;SDS011;2496;52.468;13.342;2023-03-01T00:31:41;28.30;;;12.37;;
4961;SDS011;2496;52.468;13.342;2023-03-01T00:34:09;25.27;;;14.73;;
4961;SDS011;2496;52.468;13.342;2023-03-01T00:36:36;23.80;;;12.40;;
4961;SDS011;2496;52.468;13.342;2023-03-01T00:39:05;20.77;;;11.80;;
4961;SDS011;2496;52.468;13.342;2023-03-01T00:41:34;21.87;;;11.53;;
4961;SDS011;2496;52.468;13.342;2023-03-01T00:44:02;22.47;;;13.30;;
4961;SDS011;2496;52.468;13.342;2023-03-01T00:46:29;22.30;;;13.57;;
4961;SDS011;2496;52.468;13.342;2023-03-01T00:48:56;28.47;;;13.63;;
4961;SDS011;2496;52.468;13.342;2023-03-01T00:51:24;23.50;;;13.10;;
4961;SDS011;2496;52.468;13.342;2023-03-01T00:53:53;23.50;;;12.30;;
4961;SDS011;2496;52.468;13.342;2023-03-01T00:56:21;25.60;;;13.47;;
4961;SDS011;2496;52.468;13.342;2023-03-01T00:58:49;23.13;;;12.10;;
4961;SDS011;2496;52.468;13.342;2023-03-01T01:01:19;26.03;;;13.27;;
4961;SDS011;2496;52.468;13.342;2023-03-01T01:03:48;25.50;;;12.53;;
4961;SDS011;2496;52.468;13.342;2023-03-01T01:06:17;24.07;;;12.03;;
4961;SDS011;2496;52.468;13.342;2023-03-01T01:08:45;24.00;;;13.07;;
4961;SDS011;2496;52.468;13.342;2023-03-01T01:11:13;28.30;;;12.07;;
4961;SDS011;2496;52.468;13.342;2023-03-01T01:13:40;23.07;;;12.67;;
4961;SDS011;2496;52.468;13.342;2023-03-01T01:16:07;23.03;;;12.33;;
4961;SDS011;2496;52.468;13.342;2023-03-01T01:18:36;31.47;;;13.27;;
4961;SDS011;2496;52.468;13.342;2023-03-01T01:21:04;22.90;;;12.27;;
4961;SDS011;2496;52.468;13.342;2023-03-01T01:23:32;25.30;;;12.23;;
4961;SDS011;2496;52.468;13.342;2023-03-01T01:26:02;30.73;;;13.37;;
4961;SDS011;2496;52.468;13.342;2023-03-01T01:28:30;28.13;;;12.60;;
4961;SDS011;2496;52.468;13.342;2023-03-01T01:30:58;20.47;;;12.00;;
4961;SDS011;2496;52.468;13.342;2023-03-01T01:33:25;38.77;;;13.43;;
4961;SDS011;2496;52.468;13.342;2023-03-01T01:35:53;23.33;;;12.00;;
4961;SDS011;2496;52.468;13.342;2023-03-01T01:38:21;26.23;;;12.30;;
4961;SDS011;2496;52.468;13.342;2023-03-01T01:40:48;23.93;;;10.80;;
4961;SDS011;2496;52.468;13.342;2023-03-01T01:43:20;17.90;;;10.80;;
4961;SDS011;2496;52.468;13.342;2023-03-01T01:45:48;19.77;;;12.30;;
4961;SDS011;2496;52.468;13.342;2023-03-01T01:48:16;18.37;;;11.53;;
4961;SDS011;2496;52.468;13.342;2023-03-01T01:50:46;20.03;;;11.00;;
4961;SDS011;2496;52.468;13.342;2023-03-01T01:53:23;27.17;;;12.37;;
4961;SDS011;2496;52.468;13.342;2023-03-01T01:55:53;25.40;;;12.90;;
4961;SDS011;2496;52.468;13.342;2023-03-01T01:58:22;20.37;;;11.40;;
4961;SDS011;2496;52.468;13.342;2023-03-01T02:00:52;25.93;;;12.43;;
4961;SDS011;2496;52.468;13.342;2023-03-01T02:03:20;21.00;;;12.00;;
4961;SDS011;2496;52.468;13.342;2023-03-01T02:05:55;20.63;;;12.27;;
4961;SDS011;2496;52.468;13.342;2023-03-01T02:08:28;23.80;;;12.20;;
4961;SDS011;2496;52.468;13.342;2023-03-01T02:10:58;19.43;;;11.73;;
4961;SDS011;2496;52.468;13.342;2023-03-01T02:13:25;21.83;;;12.73;;
4961;SDS011;2496;52.468;13.342;2023-03-01T02:15:53;21.80;;;11.80;;
4961;SDS011;2496;52.468;13.342;2023-03-01T02:18:21;21.20;;;11.50;;
4961;SDS011;2496;52.468;13.342;2023-03-01T02:20:52;21.70;;;11.40;;
4961;SDS011;2496;52.468;13.342;2023-03-01T02:23:32;23.07;;;12.13;;
4961;SDS011;2496;52.468;13.342;2023-03-01T02:26:02;25.50;;;12.60;;
4961;SDS011;2496;52.468;13.342;2023-03-01T02:28:35;22.33;;;11.30;;
4961;SDS011;2496;52.468;13.342;2023-03-01T02:31:03;19.67;;;11.30;;
4961;SDS011;2496;52.468;13.342;2023-03-01T02:33:50;25.60;;;12.00;;
4961;SDS011;2496;52.468;13.342;2023-03-01T02:36:20;20.43;;;11.97;;
4961;SDS011;2496;52.468;13.342;2023-03-01T02:38:50;20.33;;;11.87;;
4961;SDS011;2496;52.468;13.342;2023-03-01T02:41:19;21.40;;;12.43;;
4961;SDS011;2496;52.468;13.342;2023-03-01T02:43:49;23.40;;;13.20;;
4961;SDS011;2496;52.468;13.342;2023-03-01T02:46:18;24.10;;;12.30;;
4961;SDS011;2496;52.468;13.342;2023-03-01T02:48:46;27.70;;;12.83;;
4961;SDS011;2496;52.468;13.342;2023-03-01T02:51:31;24.50;;;12.20;;
4961;SDS011;2496;52.468;13.342;2023-03-01T02:54:10;20.70;;;12.10;;
4961;SDS011;2496;52.468;13.342;2023-03-01T02:56:45;16.30;;;10.50;;
4961;SDS011;2496;52.468;13.342;2023-03-01T02:59:15;20.43;;;11.17;;
4961;SDS011;2496;52.468;13.342;2023-03-01T03:01:45;21.13;;;11.77;;
4961;SDS011;2496;52.468;13.342;2023-03-01T03:04:14;23.90;;;11.40;;
4961;SDS011;2496;52.468;13.342;2023-03-01T03:06:43;27.10;;;12.37;;
4961;SDS011;2496;52.468;13.342;2023-03-01T03:09:11;20.00;;;11.70;;
4961;SDS011;2496;52.468;13.342;2023-03-01T03:11:39;22.50;;;12.93;;
4961;SDS011;2496;52.468;13.342;2023-03-01T03:14:08;22.03;;;12.00;;
4961;SDS011;2496;52.468;13.342;2023-03-01T03:16:40;17.67;;;10.93;;
4961;SDS011;2496;52.468;13.342;2023-03-01T03:19:08;21.90;;;12.37;;
4961;SDS011;2496;52.468;13.342;2023-03-01T03:21:35;20.50;;;11.77;;
4961;SDS011;2496;52.468;13.342;2023-03-01T03:24:02;19.97;;;11.90;;
4961;SDS011;2496;52.468;13.342;2023-03-01T03:26:30;19.83;;;11.00;;
4961;SDS011;2496;52.468;13.342;2023-03-01T03:28:57;23.37;;;11.67;;
4961;SDS011;2496;52.468;13.342;2023-03-01T03:31:24;23.97;;;10.93;;
4961;SDS011;2496;52.468;13.342;2023-03-01T03:33:53;26.00;;;12.67;;
4961;SDS011;2496;52.468;13.342;2023-03-01T03:36:21;27.60;;;12.93;;
4961;SDS011;2496;52.468;13.342;2023-03-01T03:38:50;24.87;;;11.30;;
4961;SDS011;2496;52.468;13.342;2023-03-01T03:41:17;23.27;;;12.73;;
4961;SDS011;2496;52.468;13.342;2023-03-01T03:43:44;20.30;;;11.60;;
4961;SDS011;2496;52.468;13.342;2023-03-01T03:46:11;21.30;;;10.90;;
4961;SDS011;2496;52.468;13.342;2023-03-01T03:48:41;21.60;;;10.67;;
4961;SDS011;2496;52.468;13.342;2023-03-01T03:51:11;23.53;;;11.57;;
4961;SDS011;2496;52.468;13.342;2023-03-01T03:53:39;25.07;;;11.03;;
4961;SDS011;2496;52.468;13.342;2023-03-01T03:56:06;21.40;;;10.90;;
4961;SDS011;2496;52.468;13.342;2023-03-01T03:58:34;20.57;;;12.10;;
4961;SDS011;2496;52.468;13.342;2023-03-01T04:01:02;24.43;;;11.90;;
4961;SDS011;2496;52.468;13.342;2023-03-01T04:03:29;19.70;;;11.20;;
4961;SDS011;2496;52.468;13.342;2023-03-01T04:05:57;22.03;;;13.00;;
4961;SDS011;2496;52.468;13.342;2023-03-01T04:08:26;20.80;;;11.20;;
4961;SDS011;2496;52.468;13.342;2023-03-01T04:10:56;21.97;;;11.90;;
4961;SDS011;2496;52.468;13.342;2023-03-01T04:13:25;20.70;;;11.70;;
4961;SDS011;2496;52.468;13.342;2023-03-01T04:15:52;20.37;;;12.00;;
4961;SDS011;2496;52.468;13.342;2023-03-01T04:18:21;20.97;;;11.40;;
4961;SDS011;2496;52.468;13.342;2023-03-01T04:20:49;23.07;;;12.10;;
4961;SDS011;2496;52.468;13.342;2023-03-01T04:23:20;22.27;;;12.43;;
4961;SDS011;2496;52.468;13.342;2023-03-01T04:25:50;25.43;;;12.47;;
4961;SDS011;2496;52.468;13.342;2023-03-01T04:28:20;23.57;;;10.93;;
4961;SDS011;2496;52.468;13.342;2023-03-01T04:30:49;18.27;;;11.00;;
4961;SDS011;2496;52.468;13.342;2023-03-01T04:33:17;21.50;;;11.30;;
4961;SDS011;2496;52.468;13.342;2023-03-01T04:35:44;24.73;;;11.57;;
4961;SDS011;2496;52.468;13.342;2023-03-01T04:38:14;20.73;;;10.33;;
4961;SDS011;2496;52.468;13.342;2023-03-01T04:40:41;26.60;;;11.63;;
4961;SDS011;2496;52.468;13.342;2023-03-01T04:43:10;17.80;;;10.17;;
4961;SDS011;2496;52.468;13.342;2023-03-01T04:45:39;24.80;;;11.83;;
4961;SDS011;2496;52.468;13.342;2023-03-01T04:48:06;21.17;;;11.77;;
4961;SDS011;2496;52.468;13.342;2023-03-01T04:50:33;21.27;;;11.43;;
4961;SDS011;2496;52.468;13.342;2023-03-01T04:53:02;21.20;;;12.17;;
4961;SDS011;2496;52.468;13.342;2023-03-01T04:55:29;18.20;;;10.87;;
4961;SDS011;2496;52.468;13.342;2023-03-01T04:57:56;22.70;;;11.90;;
4961;SDS011;2496;52.468;13.342;2023-03-01T05:00:25;26.00;;;11.47;;
4961;SDS011;2496;52.468;13.342;2023-03-01T05:02:52;21.27;;;10.67;;
4961;SDS011;2496;52.468;13.342;2023-03-01T05:05:23;24.30;;;11.80;;
4961;SDS011;2496;52.468;13.342;2023-03-01T05:07:53;18.97;;;11.00;;
4961;SDS011;2496;52.468;13.342;2023-03-01T05:10:21;17.53;;;11.70;;
4961;SDS011;2496;52.468;13.342;2023-03-01T05:12:49;23.33;;;10.87;;
4961;SDS011;2496;52.468;13.342;2023-03-01T05:15:18;18.03;;;10.67;;
4961;SDS011;2496;52.468;13.342;2023-03-01T05:17:48;28.70;;;12.07;;
4961;SDS011;2496;52.468;13.342;2023-03-01T05:20:15;24.97;;;11.57;;
4961;SDS011;2496;52.468;13.342;2023-03-01T05:22:42;23.37;;;13.17;;
4961;SDS011;2496;52.468;13.342;2023-03-01T05:25:09;22.40;;;12.33;;
4961;SDS011;2496;52.468;13.342;2023-03-01T05:27:39;18.00;;;10.73;;
4961;SDS011;2496;52.468;13.342;2023-03-01T05:30:08;23.47;;;11.70;;
4961;SDS011;2496;52.468;13.342;2023-03-01T05:32:43;21.97;;;11.43;;
4961;SDS011;2496;52.468;13.342;2023-03-01T05:35:14;18.07;;;10.33;;
4961;SDS011;2496;52.468;13.342;2023-03-01T05:37:42;28.20;;;12.47;;
4961;SDS011;2496;52.468;13.342;2023-03-01T05:40:12;21.83;;;12.13;;
4961;SDS011;2496;52.468;13.342;2023-03-01T05:42:45;22.70;;;12.03;;
4961;SDS011;2496;52.468;13.342;2023-03-01T05:45:14;26.33;;;12.37;;
4961;SDS011;2496;52.468;13.342;2023-03-01T05:47:43;24.87;;;12.67;;
4961;SDS011;2496;52.468;13.342;2023-03-01T05:50:12;21.93;;;12.00;;
4961;SDS011;2496;52.468;13.342;2023-03-01T05:52:44;19.97;;;11.73;;
4961;SDS011;2496;52.468;13.342;2023-03-01T05:55:14;21.10;;;11.23;;
4961;SDS011;2496;52.468;13.342;2023-03-01T05:57:43;22.23;;;11.93;;
4961;SDS011;2496;52.468;13.342;2023-03-01T06:00:10;25.13;;;13.37;;
4961;SDS011;2496;52.468;13.342;2023-03-01T06:02:39;21.30;;;12.73;;
4961;SDS011;2496;52.468;13.342;2023-03-01T06:05:06;25.87;;;13.00;;
4961;SDS011;2496;52.468;13.342;2023-03-01T06:07:37;25.73;;;12.40;;
4961;SDS011;2496;52.468;13.342;2023-03-01T06:10:05;37.57;;;13.93;;
4961;SDS011;2496;52.468;13.342;2023-03-01T06:12:33;29.77;;;12.27;;
4961;SDS011;2496;52.468;13.342;2023-03-01T06:15:02;30.17;;;13.07;;
4961;SDS011;2496;52.468;13.342;2023-03-01T06:17:30;22.60;;;12.73;;
4961;SDS011;2496;52.468;13.342;2023-03-01T06:20:02;25.37;;;13.17;;
4961;SDS011;2496;52.468;13.342;2023-03-01T06:22:30;20.60;;;12.83;;
4961;SDS011;2496;52.468;13.342;2023-03-01T06:24:58;24.90;;;13.47;;
4961;SDS011;2496;52.468;13.342;2023-03-01T06:27:25;25.60;;;14.30;;
4961;SDS011;2496;52.468;13.342;2023-03-01T06:29:52;19.63;;;12.20;;
4961;SDS011;2496;52.468;13.342;2023-03-01T06:32:19;22.37;;;12.50;;
4961;SDS011;2496;52.468;13.342;2023-03-01T06:34:47;27.83;;;13.80;;
4961;SDS011;2496;52.468;13.342;2023-03-01T06:37:14;24.37;;;12.80;;
4961;SDS011;2496;52.468;13.342;2023-03-01T06:39:41;20.83;;;12.47;;
4961;SDS011;2496;52.468;13.342;2023-03-01T06:42:09;26.93;;;12.90;;
4961;SDS011;2496;52.468;13.342;2023-03-01T06:44:36;21.13;;;12.10;;
4961;SDS011;2496;52.468;13.342;2023-03-01T06:47:04;24.93;;;13.87;;
4961;SDS011;2496;52.468;13.342;2023-03-01T06:49:31;22.70;;;12.83;;
4961;SDS011;2496;52.468;13.342;2023-03-01T06:51:58;21.83;;;12.13;;
4961;SDS011;2496;52.468;13.342;2023-03-01T06:54:25;22.00;;;12.80;;
4961;SDS011;2496;52.468;13.342;2023-03-01T06:56:52;23.37;;;12.80;;
4961;SDS011;2496;52.468;13.342;2023-03-01T06:59:21;28.80;;;14.33;;
4961;SDS011;2496;52.468;13.342;2023-03-01T07:01:48;29.60;;;13.30;;
4961;SDS011;2496;52.468;13.342;2023-03-01T07:04:15;20.73;;;13.03;;
4961;SDS011;2496;52.468;13.342;2023-03-01T07:06:42;25.90;;;13.10;;
4961;SDS011;2496;52.468;13.342;2023-03-01T07:09:10;22.93;;;13.70;;
4961;SDS011;2496;52.468;13.342;2023-03-01T07:11:37;26.67;;;12.97;;
4961;SDS011;2496;52.468;13.342;2023-03-01T07:14:04;28.70;;;14.30;;
4961;SDS011;2496;52.468;13.342;2023-03-01T07:16:33;21.70;;;12.30;;
4961;SDS011;2496;52.468;13.342;2023-03-01T07:19:00;24.90;;;14.43;;
4961;SDS011;2496;52.468;13.342;2023-03-01T07:21:27;26.00;;;12.80;;
4961;SDS011;2496;52.468;13.342;2023-03-01T07:23:54;28.00;;;14.67;;
4961;SDS011;2496;52.468;13.342;2023-03-01T07:26:21;24.33;;;13.10;;
4961;SDS011;2496;52.468;13.342;2023-03-01T07:28:49;27.10;;;14.27;;
4961;SDS011;2496;52.468;13.342;2023-03-01T07:31:16;22.13;;;14.20;;
4961;SDS011;2496;52.468;13.342;2023-03-01T07:33:44;23.63;;;12.60;;
4961;SDS011;2496;52.468;13.342;2023-03-01T07:36:12;25.80;;;13.03;;
4961;SDS011;2496;52.468;13.342;2023-03-01T07:38:39;24.80;;;13.90;;
4961;SDS011;2496;52.468;13.342;2023-03-01T07:41:06;18.73;;;12.03;;
4961;SDS011;2496;52.468;13.342;2023-03-01T07:43:34;24.67;;;13.43;;
4961;SDS011;2496;52.468;13.342;2023-03-01T07:46:01;21.97;;;12.47;;
4961;SDS011;2496;52.468;13.342;2023-03-01T07:48:29;26.97;;;12.00;;
4961;SDS011;2496;52.468;13.342;2023-03-01T07:50:59;26.27;;;13.40;;
4961;SDS011;2496;52.468;13.342;2023-03-01T07:53:26;19.90;;;12.63;;
4961;SDS011;2496;52.468;13.342;2023-03-01T07:56:00;19.80;;;12.23;;
4961;SDS011;2496;52.468;13.342;2023-03-01T07:58:28;21.60;;;12.20;;
4961;SDS011;2496;52.468;13.342;2023-03-01T08:00:55;19.13;;;10.80;;
4961;SDS011;2496;52.468;13.342;2023-03-01T08:03:22;23.07;;;11.67;;
4961;SDS011;2496;52.468;13.342;2023-03-01T08:05:49;16.07;;;10.43;;
4961;SDS011;2496;52.468;13.342;2023-03-01T08:08:17;24.23;;;13.63;;
4961;SDS011;2496;52.468;13.342;2023-03-01T08:10:46;22.30;;;12.30;;
4961;SDS011;2496;52.468;13.342;2023-03-01T08:13:13;19.30;;;11.20;;
4961;SDS011;2496;52.468;13.342;2023-03-01T08:15:40;20.17;;;11.60;;
4961;SDS011;2496;52.468;13.342;2023-03-01T08:18:07;23.13;;;13.83;;
4961;SDS011;2496;52.468;13.342;2023-03-01T08:20:34;19.97;;;11.70;;
4961;SDS011;2496;52.468;13.342;2023-03-01T08:23:01;21.27;;;11.00;;
4961;SDS011;2496;52.468;13.342;2023-03-01T08:25:30;21.47;;;11.90;;
4961;SDS011;2496;52.468;13.342;2023-03-01T08:27:57;20.60;;;10.90;;
4961;SDS011;2496;52.468;13.342;2023-03-01T08:30:24;18.40;;;11.50;;
4961;SDS011;2496;52.468;13.342;2023-03-01T08:32:54;14.53;;;8.77;;
4961;SDS011;2496;52.468;13.342;2023-03-01T08:35:21;15.20;;;8.60;;
4961;SDS011;2496;52.468;13.342;2023-03-01T08:37:48;12.77;;;7.83;;
4961;SDS011;2496;52.468;13.342;2023-03-01T08:40:15;12.07;;;8.07;;
4961;SDS011;2496;52.468;13.342;2023-03-01T08:42:44;15.83;;;9.73;;
4961;SDS011;2496;52.468;13.342;2023-03-01T08:45:11;13.70;;;8.20;;
4961;SDS011;2496;52.468;13.342;2023-03-01T08:47:39;15.30;;;9.80;;
4961;SDS011;2496;52.468;13.342;2023-03-01T08:50:06;21.17;;;9.83;;
4961;SDS011;2496;52.468;13.342;2023-03-01T08:52:34;12.87;;;7.83;;
4961;SDS011;2496;52.468;13.342;2023-03-01T08:55:01;14.47;;;8.50;;
4961;SDS011;2496;52.468;13.342;2023-03-01T08:57:28;15.93;;;8.13;;
4961;SDS011;2496;52.468;13.342;2023-03-01T08:59:57;22.67;;;9.00;;
4961;SDS011;2496;52.468;13.342;2023-03-01T09:02:24;15.63;;;10.20;;
4961;SDS011;2496;52.468;13.342;2023-03-01T09:04:51;12.67;;;7.47;;
4961;SDS011;2496;52.468;13.342;2023-03-01T09:07:18;14.60;;;7.03;;
4961;SDS011;2496;52.468;13.342;2023-03-01T09:09:45;13.33;;;6.63;;
4961;SDS011;2496;52.468;13.342;2023-03-01T09:12:12;10.03;;;6.20;;
4961;SDS011;2496;52.468;13.342;2023-03-01T09:14:39;10.50;;;6.77;;
4961;SDS011;2496;52.468;13.342;2023-03-01T09:17:10;7.87;;;5.70;;
4961;SDS011;2496;52.468;13.342;2023-03-01T09:19:37;11.00;;;5.93;;
4961;SDS011;2496;52.468;13.342;2023-03-01T09:22:06;8.60;;;5.23;;
4961;SDS011;2496;52.468;13.342;2023-03-01T09:24:33;9.63;;;5.93;;
4961;SDS011;2496;52.468;13.342;2023-03-01T09:27:00;9.93;;;5.60;;
4961;SDS011;2496;52.468;13.342;2023-03-01T09:29:28;9.00;;;4.83;;
4961;SDS011;2496;52.468;13.342;2023-03-01T09:31:54;12.50;;;6.33;;
4961;SDS011;2496;52.468;13.342;2023-03-01T09:34:23;16.93;;;5.30;;
4961;SDS011;2496;52.468;13.342;2023-03-01T09:36:50;14.60;;;5.43;;
4961;SDS011;2496;52.468;13.342;2023-03-01T09:39:17;12.57;;;5.27;;
4961;SDS011;2496;52.468;13.342;2023-03-01T09:41:46;10.70;;;5.93;;
4961;SDS011;2496;52.468;13.342;2023-03-01T09:44:21;10.90;;;5.10;;
4961;SDS011;2496;52.468;13.342;2023-03-01T09:46:55;11.00;;;5.67;;
4961;SDS011;2496;52.468;13.342;2023-03-01T09:49:25;6.83;;;5.53;;
4961;SDS011;2496;52.468;13.342;2023-03-01T09:51:56;10.00;;;5.53;;
4961;SDS011;2496;52.468;13.342;2023-03-01T09:54:26;11.60;;;5.23;;
4961;SDS011;2496;52.468;13.342;2023-03-01T09:57:01;14.13;;;5.27;;
4961;SDS011;2496;52.468;13.342;2023-03-01T09:59:36;8.50;;;4.53;;
4961;SDS011;2496;52.468;13.342;2023-03-01T10:02:18;9.07;;;5.43;;
4961;SDS011;2496;52.468;13.342;2023-03-01T10:04:55;32.77;;;18.97;;
4961;SDS011;2496;52.468;13.342;2023-03-01T10:07:32;13.90;;;9.00;;
4961;SDS011;2496;52.468;13.342;2023-03-01T10:10:15;10.00;;;5.83;;
4961;SDS011;2496;52.468;13.342;2023-03-01T10:12:53;5.83;;;4.10;;
4961;SDS011;2496;52.468;13.342;2023-03-01T10:15:22;8.20;;;5.27;;
4961;SDS011;2496;52.468;13.342;2023-03-01T10:17:57;8.10;;;4.93;;
4961;SDS011;2496;52.468;13.342;2023-03-01T10:20:36;16.30;;;5.00;;
4961;SDS011;2496;52.468;13.342;2023-03-01T10:23:12;23.87;;;5.60;;
4961;SDS011;2496;52.468;13.342;2023-03-01T10:25:44;11.60;;;4.83;;
4961;SDS011;2496;52.468;13.342;2023-03-01T10:28:21;8.63;;;4.77;;
4961;SDS011;2496;52.468;13.342;2023-03-01T10:30:52;8.90;;;4.70;;
4961;SDS011;2496;52.468;13.342;2023-03-01T10:33:20;9.10;;;4.67;;
4961;SDS011;2496;52.468;13.342;2023-03-01T10:35:51;15.60;;;5.50;;
4961;SDS011;2496;52.468;13.342;2023-03-01T10:38:19;6.70;;;4.63;;
4961;SDS011;2496;52.468;13.342;2023-03-01T10:40:50;10.20;;;4.07;;
4961;SDS011;2496;52.468;13.342;2023-03-01T10:43:19;10.50;;;5.37;;
4961;SDS011;2496;52.468;13.342;2023-03-01T10:45:47;9.53;;;4.37;;
4961;SDS011;2496;52.468;13.342;2023-03-01T10:48:15;13.97;;;4.60;;
4961;SDS011;2496;52.468;13.342;2023-03-01T10:50:45;9.03;;;4.10;;
4961;SDS011;2496;52.468;13.342;2023-03-01T10:53:27;7.37;;;4.80;;
4961;SDS011;2496;52.468;13.342;2023-03-01T10:55:58;11.27;;;5.30;;
4961;SDS011;2496;52.468;13.342;2023-03-01T10:58:29;11.10;;;5.40;;
4961;SDS011;2496;52.468;13.342;2023-03-01T11:00:58;11.30;;;6.80;;
4961;SDS011;2496;52.468;13.342;2023-03-01T11:03:26;11.77;;;4.80;;
4961;SDS011;2496;52.468;13.342;2023-03-01T11:06:00;11.13;;;5.23;;
4961;SDS011;2496;52.468;13.342;2023-03-01T11:08:38;9.97;;;6.07;;
4961;SDS011;2496;52.468;13.342;2023-03-01T11:13:54;8.00;;;5.60;;
4961;SDS011;2496;52.468;13.342;2023-03-01T11:16:24;13.93;;;5.80;;
4961;SDS011;2496;52.468;13.342;2023-03-01T11:18:58;13.33;;;6.07;;
4961;SDS011;2496;52.468;13.342;2023-03-01T11:21:27;8.80;;;5.77;;
4961;SDS011;2496;52.468;13.342;2023-03-01T11:23:59;9.80;;;5.70;;
4961;SDS011;2496;52.468;13.342;2023-03-01T11:26:27;8.20;;;5.80;;
4961;SDS011;2496;52.468;13.342;2023-03-01T11:31:47;10.03;;;5.60;;
4961;SDS011;2496;52.468;13.342;2023-03-01T11:34:16;8.90;;;5.30;;
4961;SDS011;2496;52.468;13.342;2023-03-01T11:36:51;10.90;;;5.70;;
4961;SDS011;2496;52.468;13.342;2023-03-01T11:39:25;13.83;;;5.83;;
4961;SDS011;2496;52.468;13.342;2023-03-01T11:42:00;12.63;;;6.40;;
4961;SDS011;2496;52.468;13.342;2023-03-01T11:44:31;10.90;;;6.10;;
4961;SDS011;2496;52.468;13.342;2023-03-01T11:47:15;9.63;;;5.80;;
4961;SDS011;2496;52.468;13.342;2023-03-01T11:50:08;10.40;;;6.03;;
4961;SDS011;2496;52.468;13.342;2023-03-01T11:52:50;29.37;;;7.40;;
4961;SDS011;2496;52.468;13.342;2023-03-01T11:55:30;15.67;;;6.50;;
4961;SDS011;2496;52.468;13.342;2023-03-01T12:01:17;10.53;;;5.70;;
4961;SDS011;2496;52.468;13.342;2023-03-01T12:03:57;9.00;;;4.80;;
4961;SDS011;2496;52.468;13.342;2023-03-01T12:06:44;8.23;;;5.00;;
4961;SDS011;2496;52.468;13.342;2023-03-01T12:09:34;9.40;;;4.57;;
4961;SDS011;2496;52.468;13.342;2023-03-01T12:15:22;6.30;;;3.77;;
4961;SDS011;2496;52.468;13.342;2023-03-01T12:18:18;6.17;;;3.00;;
4961;SDS011;2496;52.468;13.342;2023-03-01T12:21:05;6.07;;;3.53;;
4961;SDS011;2496;52.468;13.342;2023-03-01T12:26:47;5.20;;;3.23;;
4961;SDS011;2496;52.468;13.342;2023-03-01T12:29:28;6.73;;;2.93;;
4961;SDS011;2496;52.468;13.342;2023-03-01T12:32:13;6.90;;;3.07;;
4961;SDS011;2496;52.468;13.342;2023-03-01T12:35:09;6.00;;;3.40;;
4961;SDS011;2496;52.468;13.342;2023-03-01T12:37:53;6.30;;;3.67;;
4961;SDS011;2496;52.468;13.342;2023-03-01T12:40:32;5.07;;;3.30;;
4961;SDS011;2496;52.468;13.342;2023-03-01T12:43:12;7.87;;;4.70;;
4961;SDS011;2496;52.468;13.342;2023-03-01T12:45:57;8.63;;;3.77;;
4961;SDS011;2496;52.468;13.342;2023-03-01T12:48:40;6.63;;;3.13;;
4961;SDS011;2496;52.468;13.342;2023-03-01T12:51:17;6.90;;;2.70;;
4961;SDS011;2496;52.468;13.342;2023-03-01T12:53:49;8.90;;;2.90;;
4961;SDS011;2496;52.468;13.342;2023-03-01T12:56:19;17.10;;;4.63;;
4961;SDS011;2496;52.468;13.342;2023-03-01T12:58:51;8.83;;;3.03;;
4961;SDS011;2496;52.468;13.342;2023-03-01T13:01:29;6.60;;;3.77;;
4961;SDS011;2496;52.468;13.342;2023-03-01T13:04:07;3.80;;;3.00;;
4961;SDS011;2496;52.468;13.342;2023-03-01T13:06:47;14.13;;;4.37;;
4961;SDS011;2496;52.468;13.342;2023-03-01T13:09:23;15.07;;;4.07;;
4961;SDS011;2496;52.468;13.342;2023-03-01T13:11:56;8.07;;;3.53;;
4961;SDS011;2496;52.468;13.342;2023-03-01T13:14:44;8.00;;;3.50;;
4961;SDS011;2496;52.468;13.342;2023-03-01T13:22:45;5.60;;;3.40;;
4961;SDS011;2496;52.468;13.342;2023-03-01T13:25:14;7.43;;;4.00;;
4961;SDS011;2496;52.468;13.342;2023-03-01T13:27:43;9.37;;;4.93;;
4961;SDS011;2496;52.468;13.342;2023-03-01T13:39:29;6.93;;;3.20;;
4961;SDS011;2496;52.468;13.342;2023-03-01T13:41:58;4.90;;;3.27;;
4961;SDS011;2496;52.468;13.342;2023-03-01T13:44:26;10.77;;;3.43;;
4961;SDS011;2496;52.468;13.342;2023-03-01T13:46:58;5.40;;;3.63;;
4961;SDS011;2496;52.468;13.342;2023-03-01T13:49:33;5.60;;;3.30;;
4961;SDS011;2496;52.468;13.342;2023-03-01T13:52:15;6.93;;;3.60;;
4961;SDS011;2496;52.468;13.342;2023-03-01T13:55:02;6.87;;;3.87;;
4961;SDS011;2496;52.468;13.342;2023-03-01T13:57:32;5.80;;;3.70;;
4961;SDS011;2496;52.468;13.342;2023-03-01T14:00:00;12.90;;;4.50;;
4961;SDS011;2496;52.468;13.342;2023-03-01T14:02:29;5.17;;;3.03;;
4961;SDS011;2496;52.468;13.342;2023-03-01T14:04:58;12.50;;;3.93;;
4961;SDS011;2496;52.468;13.342;2023-03-01T14:07:26;4.90;;;2.80;;
4961;SDS011;2496;52.468;13.342;2023-03-01T14:09:56;4.00;;;2.80;;
4961;SDS011;2496;52.468;13.342;2023-03-01T14:12:28;6.17;;;3.40;;
4961;SDS011;2496;52.468;13.342;2023-03-01T14:15:06;4.90;;;3.50;;
4961;SDS011;2496;52.468;13.342;2023-03-01T14:17:46;6.53;;;3.70;;
4961;SDS011;2496;52.468;13.342;2023-03-01T14:20:26;12.57;;;4.10;;
4961;SDS011;2496;52.468;13.342;2023-03-01T14:22:56;9.00;;;2.90;;
4961;SDS011;2496;52.468;13.342;2023-03-01T14:25:25;9.90;;;6.67;;
4961;SDS011;2496;52.468;13.342;2023-03-01T14:27:56;5.57;;;3.27;;
4961;SDS011;2496;52.468;13.342;2023-03-01T14:30:31;4.10;;;3.20;;
4961;SDS011;2496;52.468;13.342;2023-03-01T14:33:04;5.33;;;3.20;;
4961;SDS011;2496;52.468;13.342;2023-03-01T14:35:51;8.93;;;3.70;;
4961;SDS011;2496;52.468;13.342;2023-03-01T14:38:20;5.80;;;2.87;;
4961;SDS011;2496;52.468;13.342;2023-03-01T14:40:56;22.93;;;2.53;;
4961;SDS011;2496;52.468;13.342;2023-03-01T14:43:25;9.80;;;3.40;;
4961;SDS011;2496;52.468;13.342;2023-03-01T14:45:52;4.83;;;3.27;;
4961;SDS011;2496;52.468;13.342;2023-03-01T14:48:19;2.90;;;2.30;;
4961;SDS011;2496;52.468;13.342;2023-03-01T14:50:48;8.27;;;2.50;;
4961;SDS011;2496;52.468;13.342;2023-03-01T14:53:19;7.90;;;3.23;;
4961;SDS011;2496;52.468;13.342;2023-03-01T14:55:48;14.73;;;3.67;;
4961;SDS011;2496;52.468;13.342;2023-03-01T14:58:19;4.50;;;2.93;;
4961;SDS011;2496;52.468;13.342;2023-03-01T15:00:49;7.40;;;3.17;;
4961;SDS011;2496;52.468;13.342;2023-03-01T15:03:20;8.87;;;2.93;;
4961;SDS011;2496;52.468;13.342;2023-03-01T15:05:53;11.83;;;5.80;;
4961;SDS011;2496;52.468;13.342;2023-03-01T15:08:22;7.27;;;3.30;;
4961;SDS011;2496;52.468;13.342;2023-03-01T15:10:59;11.87;;;3.60;;
4961;SDS011;2496;52.468;13.342;2023-03-01T15:13:29;4.17;;;3.00;;
4961;SDS011;2496;52.468;13.342;2023-03-01T15:16:05;5.03;;;2.40;;
4961;SDS011;2496;52.468;13.342;2023-03-01T15:18:35;4.10;;;2.70;;
4961;SDS011;2496;52.468;13.342;2023-03-01T15:21:09;4.20;;;2.50;;
4961;SDS011;2496;52.468;13.342;2023-03-01T15:23:41;7.23;;;2.93;;
4961;SDS011;2496;52.468;13.342;2023-03-01T15:26:20;4.50;;;2.83;;
4961;SDS011;2496;52.468;13.342;2023-03-01T15:28:51;8.20;;;3.33;;
4961;SDS011;2496;52.468;13.342;2023-03-01T15:31:19;5.57;;;3.47;;
4961;SDS011;2496;52.468;13.342;2023-03-01T15:33:47;10.83;;;2.70;;